Time;durP1;ratioP1;P1;durP2;ratioP2;P2;SDS_P1;SDS_P2;PMS_P1;PMS_P2;Temp;Humidity;BMP_temperature;BMP_pressure;BME280_temperature;BME280_humidity;BME280_pressure;Samples;Min_cycle;Max_cycle;Signal;HPM_P1;HPM_P2
2022/09/11 00:03:58;;;;;;;;;;;;;;;;;;8363285;28;28763;-83
2022/09/11 00:07:59;;;;;;;;;;;;;;;;;;8366293;28;28618;-82
2022/09/11 00:11:59;;;;;;;;;;;;;;;;;;8382008;28;27247;-83
2022/09/11 00:16:00;;;;;;;;;;;;;;;;;;8384612;28;27983;-83
2022/09/11 00:20:00;;;;;;;;;;;;;;;;;;8381967;28;28185;-82
2022/09/11 00:24:01;;;;;;;;;;;;;;;;;;8382668;28;27934;-81
2022/09/11 00:28:01;;;;;;;;;;;;;;;;;;8377566;28;28534;-82
2022/09/11 00:32:01;;;;;;;;;;;;;;;;;;8367683;28;28447;-82
2022/09/11 00:36:02;;;;;;;;;;;;;;;;;;8364684;28;28387;-82
2022/09/11 00:40:03;;;;;;;;;;;;;;;;;;8383058;28;27349;-82
2022/09/11 00:44:03;;;;;;;;;;;;;;;;;;8378957;28;28464;-82
2022/09/11 00:48:04;;;;;;;;;;;;;;;;;;8376547;28;28219;-82
2022/09/11 00:52:04;;;;;;;;;;;;;;;;;;8380756;28;27485;-82
2022/09/11 00:56:04;;;;;;;;;;;;;;;;;;8365995;28;27908;-82
2022/09/11 01:00:04;;;;;;;;;;;;;;;;;;8379740;28;27428;-82
2022/09/11 01:04:04;;;;;;;;;;;;;;;;;;8380647;28;27812;-80
2022/09/11 01:08:05;;;;;;;;;;;;;;;;;;8384077;28;27449;-80
2022/09/11 01:12:05;;;;;;;;;;;;;;;;;;8385129;28;27644;-81
2022/09/11 01:16:05;;;;;;;;;;;;;;;;;;8380458;28;29126;-80
2022/09/11 01:20:06;;;;;;;;;;;;;;;;;;8382644;28;27275;-81
2022/09/11 01:24:07;;;;;;;;;;;;;;;;;;8370638;28;28870;-80
2022/09/11 01:28:08;;;;;;;;;;;;;;;;;;8371477;28;28594;-81
2022/09/11 01:32:08;;;;;;;;;;;;;;;;;;8365739;28;28492;-80
2022/09/11 01:36:08;;;;;;;;;;;;;;;;;;8383418;28;28558;-82
2022/09/11 01:40:09;;;;;;;;;;;;;;;;;;8372494;28;28460;-82
2022/09/11 01:44:09;;;;;;;;;;;;;;;;;;8372694;28;28778;-81
2022/09/11 01:48:09;;;;;;;;;;;;;;;;;;8368655;28;28493;-83
2022/09/11 01:52:10;;;;;;;;;;;;;;;;;;8369601;28;28323;-83
2022/09/11 01:56:10;;;;;;;;;;;;;;;;;;8382754;28;28613;-81
2022/09/11 02:00:10;;;;;;;;;;;;;;;;;;8372465;28;27454;-81
2022/09/11 02:04:10;;;;;;;;;;;;;;;;;;8369853;28;28489;-81
2022/09/11 02:08:10;;;;;;;;;;;;;;;;;;8369058;28;28710;-82
2022/09/11 02:12:10;;;;;;;;;;;;;;;;;;8381144;28;27568;-82
2022/09/11 02:16:11;;;;;;;;;;;;;;;;;;8363684;28;29351;-82
2022/09/11 02:20:11;;;;;;;;;;;;;;;;;;8369043;28;28535;-81
2022/09/11 02:24:11;;;;;;;;;;;;;;;;;;8367759;28;28646;-81
2022/09/11 02:28:11;;;;;;;;;;;;;;;;;;8367140;28;28859;-81
2022/09/11 02:32:11;;;;;;;;;;;;;;;;;;8379059;28;28176;-81
2022/09/11 02:36:11;;;;;;;;;;;;;;;;;;8369626;28;28528;-81
2022/09/11 02:40:12;;;;;;;;;;;;;;;;;;8369295;28;28688;-81
2022/09/11 02:44:12;;;;;;;;;;;;;;;;;;8379544;28;27374;-80
2022/09/11 02:48:13;;;;;;;;;;;;;;;;;;8371730;28;28583;-81
2022/09/11 02:52:13;;;;;;;;;;;;;;;;;;8375287;28;29207;-80
2022/09/11 02:56:13;;;;;;;;;;;;;;;;;;8382576;28;27338;-80
2022/09/11 03:00:13;;;;;;;;;;;;;;;;;;8366289;28;28357;-81
2022/09/11 03:04:14;;;;;;;;;;;;;;;;;;8376695;28;27631;-81
2022/09/11 03:08:15;;;;;;;;;;;;;;;;;;8376004;28;29261;-81
2022/09/11 03:12:16;;;;;;;;;;;;;;;;;;8382583;28;27867;-82
2022/09/11 03:16:16;;;;;;;;;;;;;;;;;;8365571;28;28308;-81
2022/09/11 03:20:16;;;;;;;;;;;;;;;;;;8380454;28;27269;-81
2022/09/11 03:24:16;;;;;;;;;;;;;;;;;;8377780;28;27851;-81
2022/09/11 03:28:17;;;;;;;;;;;;;;;;;;8362841;28;28686;-82
2022/09/11 03:32:17;;;;;;;;;;;;;;;;;;8376080;28;27670;-81
2022/09/11 03:36:19;;;;;;;;;;;;;;;;;;8365296;28;28516;-81
2022/09/11 03:40:19;;;;;;;;;;;;;;;;;;8363447;28;28522;-82
2022/09/11 03:44:19;;;;;;;;;;;;;;;;;;8384591;28;27289;-82
2022/09/11 03:48:19;;;;;;;;;;;;;;;;;;8367323;28;28225;-81
2022/09/11 03:52:20;;;;;;;;;;;;;;;;;;8376472;28;28562;-80
2022/09/11 03:56:20;;;;;;;;;;;;;;;;;;8379049;28;28443;-81
2022/09/11 04:00:21;;;;;;;;;;;;;;;;;;8379618;28;28322;-81
2022/09/11 04:04:21;;;;;;;;;;;;;;;;;;8377958;28;27508;-81
2022/09/11 04:08:21;;;;;;;;;;;;;;;;;;8360006;28;28484;-80
2022/09/11 04:12:21;;;;;;;;;;;;;;;;;;8358321;28;28152;-81
2022/09/11 04:16:21;;;;;;;;;;;;;;;;;;8359496;28;28829;-81
2022/09/11 04:20:22;;;;;;;;;;;;;;;;;;8369570;28;27633;-80
2022/09/11 04:24:22;;;;;;;;;;;;;;;;;;8366623;28;28463;-80
2022/09/11 04:28:22;;;;;;;;;;;;;;;;;;8368935;28;28396;-82
2022/09/11 04:32:22;;;;;;;;;;;;;;;;;;8362173;28;28223;-81
2022/09/11 04:36:24;;;;;;;;;;;;;;;;;;8360776;28;28475;-81
2022/09/11 04:40:25;;;;;;;;;;;;;;;;;;8377440;28;27790;-81
2022/09/11 04:44:25;;;;;;;;;;;;;;;;;;8368699;28;28698;-81
2022/09/11 04:48:25;;;;;;;;;;;;;;;;;;8360581;28;28454;-79
2022/09/11 04:52:26;;;;;;;;;;;;;;;;;;8375602;28;27766;-80
2022/09/11 04:56:29;;;;;;;;;;;;;;;;;;8376715;28;28289;-82
2022/09/11 05:00:30;;;;;;;;;;;;;;;;;;8363891;28;28586;-81
2022/09/11 05:04:30;;;;;;;;;;;;;;;;;;8361413;28;28650;-82
2022/09/11 05:08:32;;;;;;;;;;;;;;;;;;8358310;28;28644;-81
2022/09/11 05:12:32;;;;;;;;;;;;;;;;;;8377670;28;28591;-83
2022/09/11 05:16:33;;;;;;;;;;;;;;;;;;8365312;28;29285;-79
2022/09/11 05:20:33;;;;;;;;;;;;;;;;;;8362937;28;28382;-81
2022/09/11 05:24:33;;;;;;;;;;;;;;;;;;8381976;28;27551;-81
2022/09/11 05:28:33;;;;;;;;;;;;;;;;;;8385526;28;27744;-81
2022/09/11 05:32:33;;;;;;;;;;;;;;;;;;8381410;27;27663;-81
2022/09/11 05:36:34;;;;;;;;;;;;;;;;;;8377712;28;28569;-81
2022/09/11 05:40:34;;;;;;;;;;;;;;;;;;8364262;28;27351;-80
2022/09/11 05:44:35;;;;;;;;;;;;;;;;;;8369509;28;28500;-81
2022/09/11 05:48:36;;;;;;;;;;;;;;;;;;8369083;28;28411;-81
2022/09/11 05:52:37;;;;;;;;;;;;;;;;;;8367266;28;28391;-81
2022/09/11 05:56:37;;;;;;;;;;;;;;;;;;8385552;28;27572;-80
2022/09/11 06:00:37;;;;;;;;;;;;;;;;;;8387278;28;28966;-81
2022/09/11 06:04:37;;;;;;;;;;;;;;;;;;8369198;28;28723;-81
2022/09/11 06:08:38;;;;;;;;;;;;;;;;;;8384522;28;28191;-81
2022/09/11 06:12:38;;;;;;;;;;;;;;;;;;8382046;28;27686;-82
2022/09/11 06:16:39;;;;;;;;;;;;;;;;;;8382086;28;27475;-81
2022/09/11 06:20:40;;;;;;;;;;;;;;;;;;8383102;28;27432;-79
2022/09/11 06:24:40;;;;;;;;;;;;;;;;;;8365917;28;28526;-79
2022/09/11 06:28:41;;;;;;;;;;;;;;;;;;8383662;28;28717;-80
2022/09/11 06:32:41;;;;;;;;;;;;;;;;;;8379761;28;28636;-79
2022/09/11 06:36:42;;;;;;;;;;;;;;;;;;8380171;28;28621;-81
2022/09/11 06:40:42;;;;;;;;;;;;;;;;;;8381420;28;27584;-81
2022/09/11 06:44:43;;;;;;;;;;;;;;;;;;8363696;28;30076;-81
2022/09/11 06:48:43;;;;;;;;;;;;;;;;;;8379829;28;28252;-81
2022/09/11 06:52:43;;;;;;;;;;;;;;;;;;8379302;28;28441;-84
2022/09/11 06:56:44;;;;;;;;;;;;;;;;;;8377766;28;27840;-83
2022/09/11 07:00:44;;;;;;;;;;;;;;;;;;8380395;28;27351;-81
2022/09/11 07:04:46;;;;;;;;;;;;;;;;;;8366311;28;29320;-80
2022/09/11 07:08:46;;;;;;;;;;;;;;;;;;8363618;28;29310;-82
2022/09/11 07:12:46;;;;;;;;;;;;;;;;;;8367518;28;28246;-81
2022/09/11 07:16:46;;;;;;;;;;;;;;;;;;8380253;28;27936;-80
2022/09/11 07:20:46;;;;;;;;;;;;;;;;;;8377746;28;27859;-81
2022/09/11 07:24:46;;;;;;;;;;;;;;;;;;8382733;28;27808;-80
2022/09/11 07:28:49;;;;;;;;;;;;;;;;;;8375523;28;28368;-80
2022/09/11 07:32:49;;;;;;;;;;;;;;;;;;8363472;28;28819;-80
2022/09/11 07:36:52;;;;;;;;;;;;;;;;;;8364694;28;28360;-79
2022/09/11 07:40:52;;;;;;;;;;;;;;;;;;8377355;28;27464;-80
2022/09/11 07:44:53;;;;;;;;;;;;;;;;;;8379904;28;28049;-80
2022/09/11 07:48:53;;;;;;;;;;;;;;;;;;8379916;28;27595;-79
2022/09/11 07:52:53;;;;;;;;;;;;;;;;;;8364339;28;28490;-81
2022/09/11 07:56:53;;;;;;;;;;;;;;;;;;8378484;28;28077;-82
2022/09/11 08:00:53;;;;;;;;;;;;;;;;;;8360943;28;28197;-81
2022/09/11 08:04:53;;;;;;;;;;;;;;;;;;8375913;28;28518;-81
2022/09/11 08:08:54;;;;;;;;;;;;;;;;;;8366274;28;28372;-82
2022/09/11 08:12:54;;;;;;;;;;;;;;;;;;8382244;28;27477;-80
2022/09/11 08:16:55;;;;;;;;;;;;;;;;;;8368316;28;28295;-80
2022/09/11 08:20:55;;;;;;;;;;;;;;;;;;8385517;28;28842;-79
2022/09/11 08:24:55;;;;;;;;;;;;;;;;;;8368469;28;28497;-79
2022/09/11 08:28:56;;;;;;;;;;;;;;;;;;8377661;28;29433;-81
2022/09/11 08:32:56;;;;;;;;;;;;;;;;;;8380336;28;28674;-79
2022/09/11 08:36:56;;;;;;;;;;;;;;;;;;8367953;28;28286;-79
2022/09/11 08:40:57;;;;;;;;;;;;;;;;;;8382552;28;28420;-80
2022/09/11 08:44:58;;;;;;;;;;;;;;;;;;8386270;28;27393;-78
2022/09/11 08:48:58;;;;;;;;;;;;;;;;;;8381249;27;27545;-79
2022/09/11 08:52:58;;;;;;;;;;;;;;;;;;8373235;28;28314;-80
2022/09/11 08:56:58;;;;;;;;;;;;;;;;;;8371169;28;28549;-79
2022/09/11 09:00:58;;;;;;;;;;;;;;;;;;8371009;28;28281;-79
2022/09/11 09:04:59;;;;;;;;;;;;;;;;;;8382812;28;28775;-78
2022/09/11 09:08:59;;;;;;;;;;;;;;;;;;8367280;28;28271;-78
2022/09/11 09:12:59;;;;;;;;;;;;;;;;;;8378621;28;28193;-79
2022/09/11 09:16:59;;;;;;;;;;;;;;;;;;8373468;28;28480;-78
2022/09/11 09:20:59;;;;;;;;;;;;;;;;;;8384108;28;27753;-78
2022/09/11 09:25:00;;;;;;;;;;;;;;;;;;8364226;28;28233;-79
2022/09/11 09:29:00;;;;;;;;;;;;;;;;;;8371581;28;28290;-78
2022/09/11 09:33:00;;;;;;;;;;;;;;;;;;8369248;28;28456;-78
2022/09/11 09:37:00;;;;;;;;;;;;;;;;;;8383347;28;27491;-78
2022/09/11 09:41:00;;;;;;;;;;;;;;;;;;8378526;27;28328;-78
2022/09/11 09:45:01;;;;;;;;;;;;;;;;;;8380638;28;28000;-78
2022/09/11 09:49:01;;;;;;;;;;;;;;;;;;8383233;28;27837;-78
2022/09/11 09:53:01;;;;;;;;;;;;;;;;;;8380318;28;28479;-78
2022/09/11 09:57:01;;;;;;;;;;;;;;;;;;8379220;28;28149;-77
2022/09/11 10:01:01;;;;;;;;;;;;;;;;;;8375593;28;29560;-79
2022/09/11 10:05:01;;;;;;;;;;;;;;;;;;8363955;28;28513;-79
2022/09/11 10:09:02;;;;;;;;;;;;;;;;;;8366125;28;28240;-78
2022/09/11 10:13:02;;;;;;;;;;;;;;;;;;8379016;28;28020;-78
2022/09/11 10:17:02;;;;;;;;;;;;;;;;;;8373732;28;28379;-78
2022/09/11 10:21:04;;;;;;;;;;;;;;;;;;8378033;28;27436;-78
2022/09/11 10:25:04;;;;;;;;;;;;;;;;;;8377340;28;27567;-76
2022/09/11 10:29:04;;;;;;;;;;;;;;;;;;8377780;28;28059;-77
2022/09/11 10:33:04;;;;;;;;;;;;;;;;;;8380675;28;27562;-79
2022/09/11 10:37:06;;;;;;;;;;;;;;;;;;8381742;28;28063;-79
2022/09/11 10:41:09;;;;;;;;;;;;;;;;;;8380922;28;27583;-78
2022/09/11 10:45:09;;;;;;;;;;;;;;;;;;8364601;28;28934;-79
2022/09/11 10:49:09;;;;;;;;;;;;;;;;;;8368171;28;28581;-78
2022/09/11 10:53:09;;;;;;;;;;;;;;;;;;8368820;28;46270;-78
2022/09/11 10:57:12;;;;;;;;;;;;;;;;;;8366530;28;28486;-79
2022/09/11 11:01:14;;;;;;;;;;;;;;;;;;8362603;28;47603;-76
2022/09/11 11:05:14;;;;;;;;;;;;;;;;;;8381015;28;27968;-80
2022/09/11 11:09:14;;;;;;;;;;;;;;;;;;8361012;28;28381;-78
2022/09/11 11:13:14;;;;;;;;;;;;;;;;;;8379308;28;28332;-79
2022/09/11 11:17:14;;;;;;;;;;;;;;;;;;8375747;28;27412;-79
2022/09/11 11:21:15;;;;;;;;;;;;;;;;;;8377253;28;28292;-79
2022/09/11 11:25:15;;;;;;;;;;;;;;;;;;8359227;28;28750;-80
2022/09/11 11:29:15;;;;;;;;;;;;;;;;;;8377511;28;27516;-79
2022/09/11 11:33:16;;;;;;;;;;;;;;;;;;8382154;28;27906;-79
2022/09/11 11:37:16;;;;;;;;;;;;;;;;;;8360707;28;28902;-78
2022/09/11 11:41:17;;;;;;;;;;;;;;;;;;8374014;28;28378;-78
2022/09/11 11:45:18;;;;;;;;;;;;;;;;;;8352470;28;28706;-79
2022/09/11 11:49:18;;;;;;;;;;;;;;;;;;8372501;28;27487;-79
2022/09/11 11:53:18;;;;;;;;;;;;;;;;;;8366110;28;29704;-80
2022/09/11 11:57:18;;;;;;;;;;;;;;;;;;8379196;28;29297;-78
2022/09/11 12:01:19;;;;;;;;;;;;;;;;;;8378933;28;28292;-79
2022/09/11 12:05:19;;;;;;;;;;;;;;;;;;8382628;28;27774;-79
2022/09/11 12:09:19;;;;;;;;;;;;;;;;;;8364753;28;29345;-80
2022/09/11 12:13:19;;;;;;;;;;;;;;;;;;8375171;28;27612;-80
2022/09/11 12:17:19;;;;;;;;;;;;;;;;;;8365108;28;28473;-80
2022/09/11 12:21:19;;;;;;;;;;;;;;;;;;8379456;28;27629;-79
2022/09/11 12:25:19;;;;;;;;;;;;;;;;;;8375169;28;28762;-79
2022/09/11 12:29:20;;;;;;;;;;;;;;;;;;8377460;28;27424;-79
2022/09/11 12:33:20;;;;;;;;;;;;;;;;;;8375666;28;28384;-80
2022/09/11 12:37:20;;;;;;;;;;;;;;;;;;8362077;28;28281;-82
2022/09/11 12:41:21;;;;;;;;;;;;;;;;;;8378420;28;27590;-81
2022/09/11 12:45:22;;;;;;;;;;;;;;;;;;8375453;28;27581;-80
2022/09/11 12:49:22;;;;;;;;;;;;;;;;;;8359292;28;28434;-78
2022/09/11 12:53:22;;;;;;;;;;;;;;;;;;8377220;28;27399;-78
2022/09/11 12:57:22;;;;;;;;;;;;;;;;;;8376941;28;29596;-79
2022/09/11 13:01:22;;;;;;;;;;;;;;;;;;8381395;28;27451;-78
2022/09/11 13:05:22;;;;;;;;;;;;;;;;;;8375971;28;28175;-81
2022/09/11 13:09:23;;;;;;;;;;;;;;;;;;8360535;28;28162;-81
2022/09/11 13:13:23;;;;;;;;;;;;;;;;;;8379317;28;27739;-80
2022/09/11 13:17:24;;;;;;;;;;;;;;;;;;8381244;28;28578;-78
2022/09/11 13:21:24;;;;;;;;;;;;;;;;;;8383267;28;28461;-80
2022/09/11 13:25:26;;;;;;;;;;;;;;;;;;8380573;28;29423;-81
2022/09/11 13:29:27;;;;;;;;;;;;;;;;;;8370157;28;28758;-77
2022/09/11 13:33:28;;;;;;;;;;;;;;;;;;8374167;28;27536;-78
2022/09/11 13:37:30;;;;;;;;;;;;;;;;;;8373947;28;28772;-79
2022/09/11 13:41:30;;;;;;;;;;;;;;;;;;8360409;28;28601;-79
2022/09/11 13:45:30;;;;;;;;;;;;;;;;;;8374781;28;27445;-79
2022/09/11 13:49:30;;;;;;;;;;;;;;;;;;8378519;28;27937;-78
2022/09/11 13:53:31;;;;;;;;;;;;;;;;;;8357307;28;28476;-78
2022/09/11 13:57:32;;;;;;;;;;;;;;;;;;8374730;28;27497;-78
2022/09/11 14:01:34;;;;;;;;;;;;;;;;;;8358887;28;28508;-78
2022/09/11 14:05:35;;;;;;;;;;;;;;;;;;8353130;28;29403;-78
2022/09/11 14:09:35;;;;;;;;;;;;;;;;;;8378885;28;27567;-77
2022/09/11 14:13:36;;;;;;;;;;;;;;;;;;8377042;28;28001;-77
2022/09/11 14:17:36;;;;;;;;;;;;;;;;;;8375797;28;27609;-78
2022/09/11 14:21:36;;;;;;;;;;;;;;;;;;8364215;28;28158;-77
2022/09/11 14:25:36;;;;;;;;;;;;;;;;;;8363527;28;28369;-76
2022/09/11 14:29:37;;;;;;;;;;;;;;;;;;8365974;28;28209;-76
2022/09/11 14:33:37;;;;;;;;;;;;;;;;;;8369754;28;27269;-78
2022/09/11 14:37:39;;;;;;;;;;;;;;;;;;8354374;28;28192;-78
2022/09/11 14:41:39;;;;;;;;;;;;;;;;;;8374416;28;28347;-80
2022/09/11 14:45:39;;;;;;;;;;;;;;;;;;8372429;28;27410;-78
2022/09/11 14:49:40;;;;;;;;;;;;;;;;;;8375381;28;27367;-78
2022/09/11 14:53:41;;;;;;;;;;;;;;;;;;8375904;28;27907;-78
2022/09/11 14:57:42;;;;;;;;;;;;;;;;;;8377302;28;28056;-77
2022/09/11 15:01:42;;;;;;;;;;;;;;;;;;8359391;28;28418;-79
2022/09/11 15:05:44;;;;;;;;;;;;;;;;;;8361996;28;27946;-79
2022/09/11 15:09:44;;;;;;;;;;;;;;;;;;8369036;28;27396;-80
2022/09/11 15:13:45;;;;;;;;;;;;;;;;;;8363810;28;28312;-80
2022/09/11 15:17:45;;;;;;;;;;;;;;;;;;8372193;28;27649;-79
2022/09/11 15:21:45;;;;;;;;;;;;;;;;;;8352699;28;28529;-80
2022/09/11 15:25:45;;;;;;;;;;;;;;;;;;8361230;28;28480;-78
2022/09/11 15:29:45;;;;;;;;;;;;;;;;;;8347936;28;29694;-78
2022/09/11 15:33:45;;;;;;;;;;;;;;;;;;8372371;28;28961;-78
2022/09/11 15:37:46;;;;;;;;;;;;;;;;;;8367440;28;28021;-78
2022/09/11 15:41:46;;;;;;;;;;;;;;;;;;8351056;28;29308;-78
2022/09/11 15:45:46;;;;;;;;;;;;;;;;;;8365096;28;28318;-79
2022/09/11 15:49:46;;;;;;;;;;;;;;;;;;8352174;28;29441;-77
2022/09/11 15:53:47;;;;;;;;;;;;;;;;;;8353710;28;28612;-79
2022/09/11 15:57:47;;;;;;;;;;;;;;;;;;8345237;28;28475;-77
2022/09/11 16:01:47;;;;;;;;;;;;;;;;;;8352905;28;28526;-77
2022/09/11 16:05:47;;;;;;;;;;;;;;;;;;8352944;28;28526;-77
2022/09/11 16:09:47;;;;;;;;;;;;;;;;;;8364960;28;27923;-78
2022/09/11 16:13:51;;;;;;;;;;;;;;;;;;8362966;28;27829;-77
2022/09/11 16:17:51;;;;;;;;;;;;;;;;;;8343029;28;29307;-79
2022/09/11 16:21:53;;;;;;;;;;;;;;;;;;8349576;28;28982;-79
2022/09/11 16:25:54;;;;;;;;;;;;;;;;;;8350243;28;28535;-76
2022/09/11 16:29:54;;;;;;;;;;;;;;;;;;8351274;28;27526;-77
2022/09/11 16:33:55;;;;;;;;;;;;;;;;;;8373532;28;27841;-78
2022/09/11 16:37:56;;;;;;;;;;;;;;;;;;8369376;28;28580;-78
2022/09/11 16:41:56;;;;;;;;;;;;;;;;;;8373288;28;28106;-78
2022/09/11 16:45:56;;;;;;;;;;;;;;;;;;8368449;28;28140;-79
2022/09/11 16:49:56;;;;;;;;;;;;;;;;;;8367208;28;28383;-78
2022/09/11 16:53:57;;;;;;;;;;;;;;;;;;8351480;28;29107;-79
2022/09/11 16:57:57;;;;;;;;;;;;;;;;;;8351171;28;28206;-79
2022/09/11 17:01:57;;;;;;;;;;;;;;;;;;8372831;28;28077;-82
2022/09/11 17:05:58;;;;;;;;;;;;;;;;;;8351153;28;28641;-80
2022/09/11 17:09:58;;;;;;;;;;;;;;;;;;8374621;28;27546;-79
2022/09/11 17:13:58;;;;;;;;;;;;;;;;;;8358285;28;28769;-79
2022/09/11 17:17:59;;;;;;;;;;;;;;;;;;8359558;28;28240;-78
2022/09/11 17:21:59;;;;;;;;;;;;;;;;;;8358356;28;29347;-78
2022/09/11 17:26:00;;;;;;;;;;;;;;;;;;8357738;28;28251;-79
2022/09/11 17:30:00;;;;;;;;;;;;;;;;;;8358176;28;28192;-80
2022/09/11 17:34:00;;;;;;;;;;;;;;;;;;8356290;28;28252;-77
2022/09/11 17:38:02;;;;;;;;;;;;;;;;;;8366815;27;27881;-77
2022/09/11 17:42:03;;;;;;;;;;;;;;;;;;8353368;28;28350;-78
2022/09/11 17:46:03;;;;;;;;;;;;;;;;;;8372326;28;27882;-80
2022/09/11 17:50:06;;;;;;;;;;;;;;;;;;8359255;28;28442;-80
2022/09/11 17:54:06;;;;;;;;;;;;;;;;;;8361599;28;28548;-81
2022/09/11 17:58:06;;;;;;;;;;;;;;;;;;8358825;28;29346;-77
2022/09/11 18:02:06;;;;;;;;;;;;;;;;;;8366746;28;30523;-80
2022/09/11 18:06:07;;;;;;;;;;;;;;;;;;8380567;28;27931;-80
2022/09/11 18:10:07;;;;;;;;;;;;;;;;;;8368334;28;28507;-82
2022/09/11 18:14:08;;;;;;;;;;;;;;;;;;8387081;28;28199;-81
2022/09/11 18:18:09;;;;;;;;;;;;;;;;;;8363542;28;28498;-82
2022/09/11 18:22:09;;;;;;;;;;;;;;;;;;8367195;28;28587;-81
2022/09/11 18:26:09;;;;;;;;;;;;;;;;;;8366044;28;28183;-80
2022/09/11 18:30:09;;;;;;;;;;;;;;;;;;8378214;28;27432;-80
2022/09/11 18:34:09;;;;;;;;;;;;;;;;;;8379141;28;27789;-82
2022/09/11 18:38:09;;;;;;;;;;;;;;;;;;8374438;27;29171;-79
2022/09/11 18:42:10;;;;;;;;;;;;;;;;;;8378556;28;28197;-80
2022/09/11 18:46:10;;;;;;;;;;;;;;;;;;8368547;28;27484;-79
2022/09/11 18:50:10;;;;;;;;;;;;;;;;;;8369386;28;28496;-80
2022/09/11 18:54:11;;;;;;;;;;;;;;;;;;8358319;28;28332;-79
2022/09/11 18:58:11;;;;;;;;;;;;;;;;;;8351437;28;29081;-80
2022/09/11 19:02:11;;;;;;;;;;;;;;;;;;8354608;28;28684;-79
2022/09/11 19:06:11;;;;;;;;;;;;;;;;;;8355591;28;28698;-79
2022/09/11 19:10:11;;;;;;;;;;;;;;;;;;8372968;28;28447;-79
2022/09/11 19:14:12;;;;;;;;;;;;;;;;;;8353917;28;28547;-79
2022/09/11 19:18:12;;;;;;;;;;;;;;;;;;8374242;28;28119;-77
2022/09/11 19:22:13;;;;;;;;;;;;;;;;;;8361131;28;28883;-80
2022/09/11 19:26:13;;;;;;;;;;;;;;;;;;8373063;28;27362;-78
2022/09/11 19:30:15;;;;;;;;;;;;;;;;;;8351653;28;28193;-81
2022/09/11 19:34:15;;;;;;;;;;;;;;;;;;8373923;28;28712;-79
2022/09/11 19:38:16;;;;;;;;;;;;;;;;;;8372606;28;27907;-80
2022/09/11 19:42:16;;;;;;;;;;;;;;;;;;8370492;28;28569;-79
2022/09/11 19:46:16;;;;;;;;;;;;;;;;;;8363782;28;28468;-80
2022/09/11 19:50:20;;;;;;;;;;;;;;;;;;8357993;28;28883;-79
2022/09/11 19:54:21;;;;;;;;;;;;;;;;;;8375399;28;28756;-78
2022/09/11 19:58:21;;;;;;;;;;;;;;;;;;8375589;28;28059;-79
2022/09/11 20:02:22;;;;;;;;;;;;;;;;;;8374602;28;28288;-81
2022/09/11 20:06:22;;;;;;;;;;;;;;;;;;8372744;28;28149;-79
2022/09/11 20:10:22;;;;;;;;;;;;;;;;;;8357712;28;28708;-80
2022/09/11 20:14:22;;;;;;;;;;;;;;;;;;8372616;28;27884;-79
2022/09/11 20:18:22;;;;;;;;;;;;;;;;;;8354716;28;28989;-79
2022/09/11 20:22:23;;;;;;;;;;;;;;;;;;8351849;28;29372;-80
2022/09/11 20:26:23;;;;;;;;;;;;;;;;;;8353354;28;28435;-78
2022/09/11 20:30:24;;;;;;;;;;;;;;;;;;8358701;28;28195;-80
2022/09/11 20:34:26;;;;;;;;;;;;;;;;;;8358847;28;28384;-81
2022/09/11 20:38:27;;;;;;;;;;;;;;;;;;8364495;28;27739;-80
2022/09/11 20:42:27;;;;;;;;;;;;;;;;;;8350771;28;28361;-80
2022/09/11 20:46:27;;;;;;;;;;;;;;;;;;8355526;28;28719;-82
2022/09/11 20:50:27;;;;;;;;;;;;;;;;;;8354930;28;28548;-80
2022/09/11 20:54:27;;;;;;;;;;;;;;;;;;8350773;28;28392;-80
2022/09/11 20:58:27;;;;;;;;;;;;;;;;;;8357982;28;28499;-80
2022/09/11 21:02:27;;;;;;;;;;;;;;;;;;8357747;28;29380;-80
2022/09/11 21:06:28;;;;;;;;;;;;;;;;;;8364682;28;27567;-79
2022/09/11 21:10:28;;;;;;;;;;;;;;;;;;8369215;28;28216;-81
2022/09/11 21:14:29;;;;;;;;;;;;;;;;;;8354229;28;28627;-81
2022/09/11 21:18:29;;;;;;;;;;;;;;;;;;8355451;28;28462;-81
2022/09/11 21:22:29;;;;;;;;;;;;;;;;;;8367588;28;29413;-80
2022/09/11 21:26:29;;;;;;;;;;;;;;;;;;8351357;28;29613;-79
2022/09/11 21:30:29;;;;;;;;;;;;;;;;;;8372673;28;27717;-80
2022/09/11 21:34:29;;;;;;;;;;;;;;;;;;8370601;28;28947;-79
2022/09/11 21:38:30;;;;;;;;;;;;;;;;;;8366287;28;28459;-79
2022/09/11 21:42:30;;;;;;;;;;;;;;;;;;8370328;28;27873;-79
2022/09/11 21:46:30;;;;;;;;;;;;;;;;;;8351109;28;28182;-79
2022/09/11 21:50:30;;;;;;;;;;;;;;;;;;8368945;28;28705;-82
2022/09/11 21:54:30;;;;;;;;;;;;;;;;;;8369793;28;28160;-80
2022/09/11 21:58:30;;;;;;;;;;;;;;;;;;8367911;28;28382;-79
2022/09/11 22:02:30;;;;;;;;;;;;;;;;;;8360670;28;28546;-79
2022/09/11 22:06:31;;;;;;;;;;;;;;;;;;8357259;28;28797;-79
2022/09/11 22:10:31;;;;;;;;;;;;;;;;;;8360595;28;28494;-80
2022/09/11 22:14:31;;;;;;;;;;;;;;;;;;8373712;28;27810;-80
2022/09/11 22:18:31;;;;;;;;;;;;;;;;;;8356021;28;29102;-80
2022/09/11 22:22:31;;;;;;;;;;;;;;;;;;8375950;28;28610;-79
2022/09/11 22:26:32;;;;;;;;;;;;;;;;;;8373403;28;28142;-79
2022/09/11 22:30:32;;;;;;;;;;;;;;;;;;8363726;28;28510;-77
2022/09/11 22:34:32;;;;;;;;;;;;;;;;;;8377213;28;28450;-81
2022/09/11 22:38:32;;;;;;;;;;;;;;;;;;8375457;28;27834;-79
2022/09/11 22:42:32;;;;;;;;;;;;;;;;;;8360501;28;28178;-80
2022/09/11 22:46:33;;;;;;;;;;;;;;;;;;8361874;28;28340;-80
2022/09/11 22:50:33;;;;;;;;;;;;;;;;;;8362011;28;29432;-79
2022/09/11 22:54:33;;;;;;;;;;;;;;;;;;8379595;28;29312;-78
2022/09/11 22:58:33;;;;;;;;;;;;;;;;;;8366902;28;27912;-79
2022/09/11 23:02:34;;;;;;;;;;;;;;;;;;8357850;28;28497;-79
2022/09/11 23:10:53;;;;;;;;;;;;;;;;;;8369986;28;27691;-78
2022/09/11 23:14:54;;;;;;;;;;;;;;;;;;8355819;28;28609;-80
2022/09/11 23:18:54;;;;;;;;;;;;;;;;;;8368392;28;27875;-79
2022/09/11 23:22:57;;;;;;;;;;;;;;;;;;8373420;28;27956;-77
2022/09/11 23:26:58;;;;;;;;;;;;;;;;;;8368952;28;28323;-81
2022/09/11 23:30:58;;;;;;;;;;;;;;;;;;8375765;28;27799;-81
2022/09/11 23:34:58;;;;;;;;;;;;;;;;;;8360542;28;28212;-79
2022/09/11 23:38:58;;;;;;;;;;;;;;;;;;8352454;28;28349;-80
2022/09/11 23:42:58;;;;;;;;;;;;;;;;;;8357658;28;28540;-80
2022/09/11 23:47:00;;;;;;;;;;;;;;;;;;8377829;28;28430;-80
2022/09/11 23:51:01;;;;;;;;;;;;;;;;;;8363164;28;28460;-81
2022/09/11 23:55:02;;;;;;;;;;;;;;;;;;8379221;28;27818;-82
2022/09/11 23:59:02;;;;;;;;;;;;;;;;;;8372827;28;29696;-79
